Time;durP1;ratioP1;P1;durP2;ratioP2;P2;SDS_P1;SDS_P2;PMS_P1;PMS_P2;Temp;Humidity;BMP_temperature;BMP_pressure;BME280_temperature;BME280_humidity;BME280_pressure;Samples;Min_cycle;Max_cycle;Signal;HPM_P1;HPM_P2
2022/07/19 00:02:02;;;;;;;7.10;3.55;;;;;;;19.01;84.84;101904.94;5041192;28;20027;-69
2022/07/19 00:04:28;;;;;;;4.07;2.35;;;;;;;19.05;84.56;101914.25;5042343;28;20607;-67
2022/07/19 00:06:55;;;;;;;4.60;3.17;;;;;;;19.05;85.26;101917.78;5036046;28;20033;-67
2022/07/19 00:09:21;;;;;;;5.32;2.60;;;;;;;19.04;84.22;101916.13;5044873;28;20025;-67
2022/07/19 00:11:46;;;;;;;5.18;3.22;;;;;;;19.05;85.33;101912.44;5041901;28;20025;-67
2022/07/19 00:14:12;;;;;;;7.88;3.42;;;;;;;19.05;85.05;101904.41;5041859;28;20029;-67
2022/07/19 00:16:37;;;;;;;8.43;3.10;;;;;;;19.06;84.62;101902.56;5040986;28;20033;-67
2022/07/19 00:19:02;;;;;;;4.53;3.15;;;;;;;19.02;85.28;101898.59;5035595;28;20044;-68
2022/07/19 00:21:28;;;;;;;4.03;3.03;;;;;;;19.02;84.90;101909.28;5042715;28;20030;-68
2022/07/19 00:23:53;;;;;;;4.55;2.70;;;;;;;18.99;85.71;101906.94;5038569;28;20037;-68
2022/07/19 00:26:19;;;;;;;4.38;2.80;;;;;;;18.97;86.09;101900.97;5038883;28;20033;-68
2022/07/19 00:28:44;;;;;;;5.88;2.28;;;;;;;18.98;86.18;101905.31;5042514;28;20036;-68
2022/07/19 00:31:09;;;;;;;4.22;2.53;;;;;;;19.02;84.97;101904.75;5033568;28;20044;-67
2022/07/19 00:33:35;;;;;;;6.55;2.63;;;;;;;19.07;84.88;101901.53;5042724;28;20029;-68
2022/07/19 00:36:00;;;;;;;4.88;2.85;;;;;;;19.04;84.69;101910.75;5042046;28;20033;-68
2022/07/19 00:38:26;;;;;;;4.40;2.67;;;;;;;18.97;86.34;101903.66;5043144;28;20026;-68
2022/07/19 00:40:51;;;;;;;7.28;2.47;;;;;;;18.97;85.89;101907.16;5043623;28;20139;-68
2022/07/19 00:43:17;;;;;;;3.90;2.45;;;;;;;19.01;85.00;101903.13;5039065;28;20521;-68
2022/07/19 00:45:42;;;;;;;4.18;2.67;;;;;;;19.06;83.86;101911.41;5043040;28;20036;-68
2022/07/19 00:48:08;;;;;;;2.63;2.05;;;;;;;19.06;84.45;101905.25;5038842;28;20037;-68
2022/07/19 00:50:33;;;;;;;3.05;2.40;;;;;;;19.05;84.60;101903.56;5039679;28;20029;-68
2022/07/19 00:53:02;;;;;;;4.22;2.65;;;;;;;19.04;83.94;101909.94;5045632;28;20059;-68
2022/07/19 00:55:30;;;;;;;5.32;2.22;;;;;;;19.04;83.13;101904.59;5041279;28;20037;-68
2022/07/19 00:57:58;;;;;;;2.92;1.88;;;;;;;19.05;82.89;101903.56;5044727;28;20025;-68
2022/07/19 01:00:24;;;;;;;3.20;2.67;;;;;;;19.08;82.58;101909.41;5045156;28;20045;-67
2022/07/19 01:02:51;;;;;;;3.17;2.00;;;;;;;19.06;81.67;101905.25;5040193;28;20488;-68
2022/07/19 01:05:18;;;;;;;5.45;2.53;;;;;;;19.11;83.57;101908.19;5036635;28;20370;-68
2022/07/19 01:07:44;;;;;;;2.80;1.85;;;;;;;18.97;84.62;101900.97;5038196;28;20029;-68
2022/07/19 01:10:11;;;;;;;4.50;2.47;;;;;;;18.99;83.59;101914.97;5039728;28;20064;-68
2022/07/19 01:12:37;;;;;;;7.53;2.85;;;;;;;18.99;83.60;101914.97;5038597;28;20022;-68
2022/07/19 01:15:19;;;;;;;3.47;2.20;;;;;;;18.93;84.59;101918.41;5048291;28;20052;-67
2022/07/19 01:17:45;;;;;;;4.13;2.40;;;;;;;18.86;85.52;101910.25;5041743;28;20033;-69
2022/07/19 01:20:11;;;;;;;5.93;3.95;;;;;;;18.88;84.71;101914.41;5040568;28;20032;-67
2022/07/19 01:22:37;;;;;;;3.33;2.45;;;;;;;18.89;84.95;101907.22;5040149;28;20033;-69
2022/07/19 01:25:03;;;;;;;5.20;2.47;;;;;;;18.84;85.59;101912.28;5039134;28;20079;-68
2022/07/19 01:27:28;;;;;;;5.28;2.30;;;;;;;18.81;84.38;101908.09;5042778;28;20071;-68
2022/07/19 01:29:54;;;;;;;7.53;3.13;;;;;;;18.79;84.97;101904.78;5034634;28;20473;-67
2022/07/19 01:32:19;;;;;;;4.43;2.70;;;;;;;18.80;84.36;101909.13;5036270;28;20072;-68
2022/07/19 01:34:44;;;;;;;2.97;1.85;;;;;;;18.81;83.72;101908.09;5036971;28;20417;-68
2022/07/19 01:37:10;;;;;;;4.90;2.45;;;;;;;18.80;83.60;101901.09;5039919;28;20033;-68
2022/07/19 01:39:35;;;;;;;5.15;2.53;;;;;;;18.78;83.54;101897.75;5044786;28;20029;-68
2022/07/19 01:42:01;;;;;;;4.38;1.90;;;;;;;18.73;83.65;101894.78;5035251;28;20110;-69
2022/07/19 01:44:27;;;;;;;5.05;2.90;;;;;;;18.71;83.77;101894.13;5040043;28;20508;-68
2022/07/19 01:46:52;;;;;;;4.40;2.10;;;;;;;18.74;83.76;101901.78;5042330;28;20021;-68
2022/07/19 01:49:17;;;;;;;4.13;2.10;;;;;;;18.74;82.30;101907.13;5040792;28;20056;-68
2022/07/19 01:51:43;;;;;;;4.10;2.67;;;;;;;18.72;83.81;101903.78;5037143;28;20500;-68
2022/07/19 01:54:08;;;;;;;2.80;1.48;;;;;;;18.74;82.92;101899.09;5042072;28;20047;-68
2022/07/19 01:56:34;;;;;;;4.35;2.03;;;;;;;18.74;82.18;101901.78;5042181;28;20076;-68
2022/07/19 01:58:59;;;;;;;3.03;1.90;;;;;;;18.74;83.04;101899.09;5034416;28;20030;-68
2022/07/19 02:01:24;;;;;;;4.10;2.20;;;;;;;18.68;84.06;101897.13;5041758;28;20050;-68
2022/07/19 02:03:50;;;;;;;2.30;1.50;;;;;;;18.64;84.70;101895.81;5037478;28;20036;-68
2022/07/19 02:06:15;;;;;;;2.63;2.10;;;;;;;18.42;83.38;101871.59;5035956;28;20079;-69
2022/07/19 02:08:41;;;;;;;6.30;2.70;;;;;;;18.56;84.67;101899.38;5038689;28;20029;-68
2022/07/19 02:13:51;;;;;;;4.72;2.78;;;;;;;18.46;85.26;101896.94;5036952;28;20116;-67
2022/07/19 02:16:16;;;;;;;4.00;2.25;;;;;;;18.42;85.24;101903.66;5035386;28;20068;-67
2022/07/19 02:18:42;;;;;;;6.28;3.22;;;;;;;18.38;84.79;101902.34;5042887;28;20119;-67
2022/07/19 02:21:07;;;;;;;4.15;2.90;;;;;;;18.28;84.92;101883.84;5043744;28;20033;-68
2022/07/19 02:23:32;;;;;;;6.97;2.97;;;;;;;18.31;85.57;101882.66;5038031;28;20033;-67
2022/07/19 02:25:58;;;;;;;6.10;2.20;;;;;;;18.30;85.97;101879.16;5041176;28;20541;-67
2022/07/19 02:28:23;;;;;;;4.22;2.67;;;;;;;18.28;85.89;101885.69;5037217;28;20098;-67
2022/07/19 02:30:48;;;;;;;5.18;3.20;;;;;;;18.20;86.46;101883.88;5041084;28;20101;-69
2022/07/19 02:33:14;;;;;;;6.70;3.85;;;;;;;18.14;86.89;101878.41;5040949;28;20029;-67
2022/07/19 02:35:39;;;;;;;8.30;2.85;;;;;;;18.14;87.38;101886.41;5039776;28;20037;-69
2022/07/19 02:38:05;;;;;;;4.50;2.63;;;;;;;18.16;86.15;101887.09;5037059;28;20452;-67
2022/07/19 02:40:30;;;;;;;4.25;3.33;;;;;;;18.15;86.51;101874.75;5037658;28;20083;-67
2022/07/19 02:42:55;;;;;;;3.80;2.60;;;;;;;18.13;87.24;101879.44;5042803;28;20085;-67
2022/07/19 02:45:21;;;;;;;6.22;3.58;;;;;;;18.09;86.07;101879.78;5045165;28;20028;-67
2022/07/19 02:47:47;;;;;;;5.32;3.05;;;;;;;18.06;86.29;101874.78;5043060;28;20088;-67
2022/07/19 02:50:12;;;;;;;6.70;3.25;;;;;;;18.08;87.18;101883.44;5033996;28;20059;-67
2022/07/19 02:52:38;;;;;;;3.22;2.50;;;;;;;18.11;86.05;101884.94;5044533;28;20029;-67
2022/07/19 02:55:04;;;;;;;4.00;2.83;;;;;;;18.11;86.49;101884.13;5033367;28;20453;-67
2022/07/19 02:57:30;;;;;;;7.40;3.65;;;;;;;18.08;86.56;101878.13;5031243;28;20038;-67
2022/07/19 02:59:55;;;;;;;5.43;2.65;;;;;;;18.11;85.91;101878.78;5040505;28;20055;-67
2022/07/19 03:02:22;;;;;;;4.70;2.78;;;;;;;18.15;85.69;101878.25;5034091;28;20057;-67
2022/07/19 03:04:47;;;;;;;5.05;3.30;;;;;;;18.11;85.78;101873.44;5039874;28;20422;-67
2022/07/19 03:07:13;;;;;;;7.03;3.42;;;;;;;18.05;88.03;101883.81;5038840;28;20397;-67
2022/07/19 03:09:38;;;;;;;7.63;3.03;;;;;;;17.97;87.69;101867.00;5038150;28;20064;-67
2022/07/19 03:12:04;;;;;;;3.38;2.65;;;;;;;18.01;86.76;101876.31;5033915;28;20091;-69
2022/07/19 03:14:30;;;;;;;5.10;3.42;;;;;;;18.02;86.45;101876.13;5034000;28;20030;-68
2022/07/19 03:16:55;;;;;;;6.57;2.55;;;;;;;17.96;87.21;101871.47;5040893;28;20027;-68
2022/07/19 03:19:20;;;;;;;3.85;2.50;;;;;;;17.95;87.85;101880.50;5039622;28;20497;-68
2022/07/19 03:21:46;;;;;;;7.05;3.22;;;;;;;17.97;86.20;101889.19;5045692;28;20734;-68
2022/07/19 03:24:11;;;;;;;5.78;2.95;;;;;;;17.96;87.06;101882.16;5042923;28;20482;-68
2022/07/19 03:26:36;;;;;;;6.63;2.67;;;;;;;17.95;86.53;101882.34;5038734;28;20037;-68
2022/07/19 03:29:02;;;;;;;6.28;2.60;;;;;;;17.95;86.94;101885.84;5037738;28;20108;-68
2022/07/19 03:31:27;;;;;;;4.45;3.70;;;;;;;17.97;85.54;101886.50;5043989;28;20025;-68
2022/07/19 03:33:52;;;;;;;4.53;2.53;;;;;;;17.93;86.10;101887.03;5039505;28;20064;-68
2022/07/19 03:36:18;;;;;;;5.90;2.63;;;;;;;17.93;85.84;101895.88;5038783;28;20061;-68
2022/07/19 03:38:43;;;;;;;5.47;3.00;;;;;;;17.89;85.95;101884.69;5036167;28;20034;-68
2022/07/19 03:41:09;;;;;;;5.95;2.90;;;;;;;17.86;87.03;101885.06;5038833;28;20037;-68
2022/07/19 03:43:37;;;;;;;4.90;2.97;;;;;;;17.74;86.46;101867.69;5044250;28;20079;-68
2022/07/19 03:46:02;;;;;;;7.10;3.70;;;;;;;17.79;87.59;101886.72;5047934;28;20045;-68
2022/07/19 03:48:28;;;;;;;7.15;3.28;;;;;;;17.76;87.55;101875.53;5040246;28;20030;-68
2022/07/19 03:50:53;;;;;;;6.55;3.28;;;;;;;17.72;86.55;101874.22;5044305;28;20709;-69
2022/07/19 03:53:19;;;;;;;7.38;3.60;;;;;;;17.71;87.21;101875.25;5037025;28;20116;-68
2022/07/19 03:55:44;;;;;;;8.80;3.28;;;;;;;17.72;87.13;101874.22;5036091;28;20096;-68
2022/07/19 03:58:09;;;;;;;9.45;3.60;;;;;;;17.75;87.29;101879.25;5039784;28;20052;-68
2022/07/19 04:00:35;;;;;;;5.47;3.38;;;;;;;17.76;86.76;101875.53;5037100;28;20443;-68
2022/07/19 04:03:00;;;;;;;3.90;2.10;;;;;;;17.78;86.62;101878.88;5037148;28;20401;-68
2022/07/19 04:05:26;;;;;;;3.90;2.13;;;;;;;17.84;86.67;101879.06;5032331;28;20032;-68
2022/07/19 04:07:51;;;;;;;7.00;2.38;;;;;;;17.91;85.96;101873.84;5036474;28;20112;-68
2022/07/19 04:10:16;;;;;;;6.15;2.28;;;;;;;17.96;84.90;101871.47;5030721;28;20031;-68
2022/07/19 04:12:42;;;;;;;8.05;2.75;;;;;;;18.01;85.58;101874.47;5033922;28;20025;-68
2022/07/19 04:15:08;;;;;;;4.40;2.53;;;;;;;18.06;85.83;101872.09;5030342;28;20112;-68
2022/07/19 04:17:33;;;;;;;3.50;2.08;;;;;;;18.08;85.32;101870.09;5030451;28;20033;-68
2022/07/19 04:19:59;;;;;;;4.18;2.75;;;;;;;18.20;84.12;101877.72;5046139;28;20033;-68
2022/07/19 04:22:24;;;;;;;4.55;3.03;;;;;;;18.21;85.71;101872.22;5042073;28;20017;-68
2022/07/19 04:24:51;;;;;;;4.63;3.00;;;;;;;18.18;86.20;101871.72;5044543;28;20066;-68
2022/07/19 04:27:16;;;;;;;6.47;3.40;;;;;;;18.18;85.72;101882.41;5044149;28;20033;-68
2022/07/19 04:29:41;;;;;;;3.88;2.28;;;;;;;18.21;85.69;101882.06;5041635;28;20452;-68
2022/07/19 04:32:07;;;;;;;4.55;2.60;;;;;;;18.26;84.87;101877.03;5046366;28;20017;-68
2022/07/19 04:34:32;;;;;;;4.65;2.50;;;;;;;18.31;85.08;101879.97;5040715;28;20043;-68
2022/07/19 04:36:58;;;;;;;4.38;3.05;;;;;;;18.31;85.02;101879.97;5042983;28;20515;-68
2022/07/19 04:39:23;;;;;;;6.47;3.60;;;;;;;18.17;84.67;101864.72;5041290;28;20052;-68
2022/07/19 04:41:48;;;;;;;5.65;3.33;;;;;;;18.23;84.99;101882.72;5020059;28;20126;-68
2022/07/19 04:44:14;;;;;;;5.40;3.17;;;;;;;18.26;84.89;101877.03;5041218;28;20362;-68
2022/07/19 04:46:39;;;;;;;6.00;3.40;;;;;;;18.32;85.16;101873.66;5039770;28;20138;-68
2022/07/19 04:49:04;;;;;;;4.95;2.83;;;;;;;18.33;85.69;101883.31;5035983;28;20036;-68
2022/07/19 04:51:30;;;;;;;8.90;3.75;;;;;;;18.25;85.26;101859.34;5037102;28;20028;-68
2022/07/19 04:53:55;;;;;;;6.10;3.50;;;;;;;18.43;85.91;101878.59;5042470;28;20036;-68
2022/07/19 04:56:21;;;;;;;8.43;2.75;;;;;;;18.40;84.61;101868.25;5036584;28;20029;-68
2022/07/19 04:58:46;;;;;;;6.93;3.13;;;;;;;18.60;85.08;101881.16;5021412;28;20041;-68
2022/07/19 05:01:12;;;;;;;5.40;2.90;;;;;;;18.68;84.38;101881.09;5039079;28;20073;-68
2022/07/19 05:03:37;;;;;;;5.90;3.47;;;;;;;18.80;84.37;101881.53;5037605;28;20056;-68
2022/07/19 05:06:02;;;;;;;4.30;3.03;;;;;;;18.88;83.64;101882.31;5033081;28;20484;-67
2022/07/19 05:08:28;;;;;;;6.00;3.35;;;;;;;18.99;83.15;101882.88;5031989;28;20072;-67
2022/07/19 05:10:53;;;;;;;5.63;4.15;;;;;;;19.07;83.66;101885.50;5034404;28;20033;-67
2022/07/19 05:13:19;;;;;;;6.75;3.50;;;;;;;19.14;82.64;101896.28;5029753;28;20045;-68
2022/07/19 05:15:44;;;;;;;6.53;2.95;;;;;;;19.13;83.39;101870.56;5030227;28;20032;-68
2022/07/19 05:18:10;;;;;;;5.30;3.15;;;;;;;19.31;83.17;101885.28;5028778;28;20123;-68
2022/07/19 05:20:35;;;;;;;7.15;3.50;;;;;;;19.40;81.81;101894.06;5036004;28;20032;-68
2022/07/19 05:23:00;;;;;;;8.93;4.28;;;;;;;19.52;81.26;101894.44;5037775;28;20562;-66
2022/07/19 05:25:26;;;;;;;4.78;2.83;;;;;;;19.62;80.76;101895.00;5038069;28;20028;-68
2022/07/19 05:27:51;;;;;;;6.38;2.85;;;;;;;19.71;80.36;101901.13;5036907;28;20025;-68
2022/07/19 05:30:17;;;;;;;5.95;3.22;;;;;;;19.78;80.09;101898.53;5039553;28;20064;-66
2022/07/19 05:32:42;;;;;;;5.88;3.30;;;;;;;19.78;80.41;101895.84;5037286;28;20025;-68
2022/07/19 05:35:08;;;;;;;5.78;3.75;;;;;;;19.81;80.08;101898.16;5045544;28;20025;-67
2022/07/19 05:37:34;;;;;;;5.80;3.15;;;;;;;19.88;80.46;101896.38;5039483;28;20493;-67
2022/07/19 05:39:59;;;;;;;6.50;3.00;;;;;;;19.90;80.99;101902.38;5035088;28;20020;-68
2022/07/19 05:42:25;;;;;;;7.03;3.45;;;;;;;20.00;80.56;101897.59;5045718;28;20025;-68
2022/07/19 05:44:51;;;;;;;7.03;3.35;;;;;;;20.12;81.28;101888.06;5038385;28;20116;-67
2022/07/19 05:47:17;;;;;;;4.57;3.10;;;;;;;20.18;80.90;101888.31;5040508;28;20112;-67
2022/07/19 05:49:43;;;;;;;4.30;2.95;;;;;;;20.09;81.59;101874.19;5038831;28;20030;-67
2022/07/19 05:52:08;;;;;;;5.95;3.40;;;;;;;20.22;81.30;101894.97;5036007;28;20031;-67
2022/07/19 05:54:33;;;;;;;5.63;3.22;;;;;;;20.23;80.97;101897.47;5035943;28;20037;-67
2022/07/19 05:56:59;;;;;;;8.30;4.13;;;;;;;20.31;80.58;101894.66;5035345;28;20021;-67
2022/07/19 05:59:24;;;;;;;8.77;3.28;;;;;;;20.41;80.21;101889.00;5037525;28;20489;-69
2022/07/19 06:01:50;;;;;;;4.90;3.35;;;;;;;20.50;79.39;101889.69;5039361;28;20063;-67
2022/07/19 06:04:15;;;;;;;6.18;3.00;;;;;;;20.58;78.83;101888.78;5042530;28;20044;-67
2022/07/19 06:06:41;;;;;;;6.93;3.05;;;;;;;20.74;78.53;101889.34;5036444;28;20040;-68
2022/07/19 06:09:07;;;;;;;5.00;3.63;;;;;;;20.93;78.41;101887.06;5037418;28;20033;-67
2022/07/19 06:11:33;;;;;;;5.15;3.67;;;;;;;21.05;77.55;101879.28;5036379;28;20599;-67
2022/07/19 06:13:59;;;;;;;7.43;3.85;;;;;;;21.27;78.16;101888.94;5038883;28;20072;-67
2022/07/19 06:16:24;;;;;;;7.50;3.80;;;;;;;21.46;78.25;101886.66;5035108;28;20104;-67
2022/07/19 06:18:50;;;;;;;7.18;4.32;;;;;;;21.45;78.27;101879.59;5034031;28;20025;-67
2022/07/19 06:21:18;;;;;;;5.90;3.15;;;;;;;21.64;77.23;101889.63;5035311;28;20052;-69
2022/07/19 06:23:44;;;;;;;8.05;4.07;;;;;;;21.85;77.64;101885.22;5034861;28;20032;-67
2022/07/19 06:26:10;;;;;;;4.93;3.30;;;;;;;21.92;77.43;101878.81;5033971;28;20028;-67
2022/07/19 06:28:37;;;;;;;5.70;4.05;;;;;;;22.09;75.92;101894.63;5041917;28;20021;-67
2022/07/19 06:31:02;;;;;;;5.35;3.40;;;;;;;22.32;76.03;101889.78;5033727;28;20025;-69
2022/07/19 06:33:28;;;;;;;8.30;3.78;;;;;;;22.51;74.45;101885.44;5039129;28;20037;-68
2022/07/19 06:35:53;;;;;;;5.35;2.75;;;;;;;22.75;73.58;101885.91;5038319;28;20037;-70
2022/07/19 06:38:19;;;;;;;5.63;3.05;;;;;;;23.08;72.76;101885.94;5031649;28;20120;-67
2022/07/19 06:40:44;;;;;;;4.63;2.80;;;;;;;23.50;71.49;101881.13;5038180;28;20397;-67
2022/07/19 06:43:10;;;;;;;5.88;3.17;;;;;;;23.74;69.49;101868.81;5036729;28;20018;-67
2022/07/19 06:45:35;;;;;;;4.88;2.97;;;;;;;24.24;68.11;101889.78;5040675;28;20106;-67
2022/07/19 06:48:01;;;;;;;4.93;2.83;;;;;;;24.43;66.65;101877.22;5035441;28;20037;-67
2022/07/19 06:50:27;;;;;;;4.50;2.72;;;;;;;24.55;66.68;101867.41;5037182;28;20061;-67
2022/07/19 06:52:52;;;;;;;4.32;2.90;;;;;;;24.80;65.45;101882.78;5031273;28;20049;-68
2022/07/19 06:55:18;;;;;;;7.43;3.25;;;;;;;25.15;64.46;101876.88;5031330;28;20385;-67
2022/07/19 06:57:44;;;;;;;6.60;3.55;;;;;;;25.43;63.40;101877.28;5040207;28;20563;-67
2022/07/19 07:00:11;;;;;;;6.00;3.00;;;;;;;25.73;62.23;101890.03;5024384;28;20052;-67
2022/07/19 07:02:37;;;;;;;6.57;3.00;;;;;;;25.62;62.65;101888.91;5039692;28;20041;-67
2022/07/19 07:05:03;;;;;;;6.40;2.78;;;;;;;25.75;62.88;101889.81;5034591;28;20029;-67
2022/07/19 07:07:29;;;;;;;3.72;2.67;;;;;;;25.94;62.66;101877.97;5037258;28;20028;-67
2022/07/19 07:09:54;;;;;;;10.13;2.70;;;;;;;26.18;61.88;101889.72;5039579;28;20491;-68
2022/07/19 07:12:19;;;;;;;5.10;3.33;;;;;;;26.12;62.02;101871.69;5037806;28;20056;-67
2022/07/19 07:14:45;;;;;;;7.43;3.15;;;;;;;26.59;61.19;101882.69;5035867;28;20033;-68
2022/07/19 07:17:10;;;;;;;6.70;2.15;;;;;;;27.05;61.54;101886.53;5036457;28;20033;-67
2022/07/19 07:19:36;;;;;;;4.65;2.58;;;;;;;27.88;60.47;101879.16;5040974;28;20029;-67
2022/07/19 07:22:02;;;;;;;4.70;2.55;;;;;;;28.39;58.42;101881.16;5038685;28;20442;-68
2022/07/19 07:24:28;;;;;;;5.13;2.35;;;;;;;28.36;57.93;101862.66;5037101;28;20042;-68
2022/07/19 07:26:53;;;;;;;7.75;2.70;;;;;;;28.28;57.09;101858.44;5035188;28;20029;-68
2022/07/19 07:29:19;;;;;;;5.22;2.58;;;;;;;28.46;56.21;101870.97;5036232;28;20029;-67
2022/07/19 07:31:44;;;;;;;3.85;2.30;;;;;;;28.45;56.33;101874.75;5035528;28;20470;-67
2022/07/19 07:34:10;;;;;;;4.43;1.88;;;;;;;28.74;55.40;101867.41;5037742;28;20041;-67
2022/07/19 07:36:35;;;;;;;5.68;2.20;;;;;;;28.91;54.91;101857.34;5033870;28;20383;-67
2022/07/19 07:39:01;;;;;;;5.38;1.90;;;;;;;29.42;54.65;101856.44;5039358;28;20029;-67
2022/07/19 07:41:26;;;;;;;2.85;2.17;;;;;;;29.40;54.60;101853.16;5037828;28;20040;-67
2022/07/19 07:43:52;;;;;;;4.93;1.80;;;;;;;29.85;53.84;101854.81;5036610;28;20533;-68
2022/07/19 07:46:17;;;;;;;3.17;2.35;;;;;;;29.75;54.19;101863.69;5034105;28;20033;-67
2022/07/19 07:48:42;;;;;;;4.07;2.20;;;;;;;29.96;54.61;101851.13;5033911;28;20025;-67
2022/07/19 07:51:08;;;;;;;4.25;2.30;;;;;;;29.58;53.33;101846.59;5037690;28;20078;-67
2022/07/19 07:53:33;;;;;;;2.58;2.05;;;;;;;29.84;53.27;101848.56;5033952;28;20033;-67
2022/07/19 07:55:59;;;;;;;2.88;2.10;;;;;;;29.81;52.92;101846.34;5035553;28;20028;-67
2022/07/19 07:58:24;;;;;;;2.30;1.50;;;;;;;30.32;52.46;101844.16;5032662;28;20033;-67
2022/07/19 08:00:49;;;;;;;4.22;1.88;;;;;;;30.75;50.42;101842.34;5038132;28;20608;-67
2022/07/19 08:03:16;;;;;;;3.00;1.67;;;;;;;30.53;50.66;101838.88;5036028;28;20028;-67
2022/07/19 08:05:41;;;;;;;5.35;2.03;;;;;;;30.94;51.62;101844.66;5036855;28;20401;-67
2022/07/19 08:08:08;;;;;;;3.05;2.00;;;;;;;31.32;51.89;101839.97;5041848;28;20028;-67
2022/07/19 08:10:35;;;;;;;2.40;1.70;;;;;;;31.23;49.14;101836.94;5040823;28;20148;-67
2022/07/19 08:13:00;;;;;;;3.22;1.60;;;;;;;31.67;48.37;101843.94;5040654;28;20039;-67
2022/07/19 08:15:26;;;;;;;3.33;2.05;;;;;;;31.65;48.28;101838.75;5037069;28;20505;-67
2022/07/19 08:17:51;;;;;;;3.90;1.73;;;;;;;31.74;49.28;101825.41;5037320;28;20060;-67
2022/07/19 08:20:16;;;;;;;2.35;1.55;;;;;;;31.87;48.84;101830.34;5039965;28;20040;-67
2022/07/19 08:22:42;;;;;;;2.95;1.95;;;;;;;32.59;47.95;101827.72;5035354;28;20696;-67
2022/07/19 08:25:08;;;;;;;2.58;1.83;;;;;;;32.83;46.93;101827.13;5041347;28;20029;-67
2022/07/19 08:27:33;;;;;;;3.35;1.77;;;;;;;32.24;46.94;101826.59;5036124;28;20761;-67
2022/07/19 08:30:00;;;;;;;4.18;2.03;;;;;;;31.68;47.16;101829.22;5033257;28;20470;-67
2022/07/19 08:32:25;;;;;;;3.45;1.85;;;;;;;31.78;47.88;101823.78;5039608;28;20029;-68
2022/07/19 08:34:51;;;;;;;4.57;1.75;;;;;;;32.98;46.98;101821.63;5038408;28;20086;-67
2022/07/19 08:37:16;;;;;;;2.90;1.48;;;;;;;33.28;47.04;101828.13;5037697;28;20072;-67
2022/07/19 08:39:42;;;;;;;3.90;1.70;;;;;;;33.77;43.61;101828.16;5043676;28;20036;-67
2022/07/19 08:42:09;;;;;;;6.47;1.98;;;;;;;32.67;45.30;101816.25;5039319;28;20392;-69
2022/07/19 08:44:38;;;;;;;2.65;1.67;;;;;;;33.36;45.57;101816.59;5035287;28;20116;-67
2022/07/19 08:47:05;;;;;;;2.45;1.73;;;;;;;33.69;44.50;101819.72;5036763;28;20122;-67
2022/07/19 08:49:30;;;;;;;4.10;1.48;;;;;;;34.15;44.72;101831.25;5036120;28;20072;-68
2022/07/19 08:51:56;;;;;;;2.40;1.73;;;;;;;34.76;44.26;101813.44;5034258;28;20021;-68
2022/07/19 08:54:22;;;;;;;2.33;1.83;;;;;;;35.40;42.00;101818.75;5034218;28;20025;-68
2022/07/19 08:59:31;;;;;;;2.83;1.90;;;;;;;35.52;42.60;101823.81;5038181;28;20048;-68
2022/07/19 09:01:57;;;;;;;5.00;1.60;;;;;;;34.82;43.25;101826.00;5036647;28;20037;-68
2022/07/19 09:04:28;;;;;;;2.53;1.58;;;;;;;35.91;42.57;101812.56;5038638;28;20393;-68
2022/07/19 09:06:56;;;;;;;3.50;1.63;;;;;;;34.39;43.28;101823.09;5039510;28;20031;-68
2022/07/19 09:09:34;;;;;;;2.75;1.20;;;;;;;35.09;42.61;101824.59;5036399;28;20136;-68
2022/07/19 09:12:01;;;;;;;1.42;1.00;;;;;;;35.91;42.45;101804.34;5037258;28;20022;-69
2022/07/19 09:14:31;;;;;;;1.90;1.23;;;;;;;35.58;40.79;101815.22;5035251;28;20481;-68
2022/07/19 09:17:06;;;;;;;6.20;1.52;;;;;;;35.22;40.97;101820.38;5036195;28;20580;-68
2022/07/19 09:19:36;;;;;;;2.30;1.40;;;;;;;36.18;39.76;101819.31;5036442;28;20044;-68
2022/07/19 09:22:07;;;;;;;4.03;1.40;;;;;;;36.12;39.55;101817.72;5034391;28;20673;-68
2022/07/19 09:24:35;;;;;;;2.47;1.48;;;;;;;36.42;38.65;101819.97;5040855;28;20505;-68
2022/07/19 09:27:04;;;;;;;4.07;1.50;;;;;;;35.37;39.84;101819.34;5036886;28;20025;-68
2022/07/19 09:29:31;;;;;;;2.30;1.30;;;;;;;35.78;38.90;101813.28;5035452;28;20059;-68
2022/07/19 09:32:16;;;;;;;1.88;1.40;;;;;;;35.57;39.67;101805.34;5035214;28;20036;-68
2022/07/19 09:35:01;;;;;;;3.08;1.20;;;;;;;35.39;39.32;101808.91;5036408;28;20040;-68
2022/07/19 09:37:32;;;;;;;3.92;1.25;;;;;;;35.87;39.19;101810.69;5038676;28;20040;-68
2022/07/19 09:40:07;;;;;;;3.05;1.58;;;;;;;35.16;39.98;101808.63;5034144;28;20432;-68
2022/07/19 09:42:39;;;;;;;2.03;1.38;;;;;;;35.99;39.74;101809.13;5037477;28;20026;-68
2022/07/19 09:45:07;;;;;;;2.42;1.10;;;;;;;36.62;38.44;101801.50;5039764;28;20517;-68
2022/07/19 09:47:37;;;;;;;4.65;1.25;;;;;;;36.60;37.19;101804.56;5038695;28;20099;-68
2022/07/19 09:50:14;;;;;;;2.13;1.23;;;;;;;36.52;36.55;101804.41;5034241;28;20029;-68
2022/07/19 09:52:40;;;;;;;3.63;1.38;;;;;;;36.32;37.88;101811.09;5040199;28;20028;-68
2022/07/19 09:55:07;;;;;;;3.08;1.27;;;;;;;36.59;38.41;101804.84;5033641;28;20022;-68
2022/07/19 09:57:39;;;;;;;12.93;1.85;;;;;;;36.91;37.49;101801.25;5037919;28;20041;-68
2022/07/19 10:00:06;;;;;;;5.47;1.35;;;;;;;37.02;37.17;101785.31;5035013;28;20128;-67
2022/07/19 10:02:35;;;;;;;2.40;1.42;;;;;;;37.28;35.65;101812.31;5022463;28;20044;-68
2022/07/19 10:05:03;;;;;;;2.03;1.30;;;;;;;37.46;36.70;101800.38;5039422;28;20021;-68
2022/07/19 10:07:28;;;;;;;2.22;1.00;;;;;;;38.44;36.40;101790.59;5035304;28;20393;-68
2022/07/19 10:09:55;;;;;;;3.97;1.40;;;;;;;38.32;35.92;101793.91;5034873;28;20025;-68
2022/07/19 10:12:21;;;;;;;2.42;1.10;;;;;;;36.95;37.46;101795.91;5033560;28;20051;-68
2022/07/19 10:14:47;;;;;;;3.75;1.05;;;;;;;36.64;38.50;101796.53;5036819;28;20025;-69
2022/07/19 10:17:50;;;;;;;3.20;1.23;;;;;;;36.96;36.08;101792.06;5035095;28;20036;-68
2022/07/19 10:20:19;;;;;;;1.45;1.10;;;;;;;36.28;37.65;101788.91;5040012;28;20017;-68
2022/07/19 10:22:45;;;;;;;1.83;1.20;;;;;;;37.20;36.54;101787.16;5032233;28;20029;-68
2022/07/19 10:25:14;;;;;;;7.10;1.17;;;;;;;36.92;35.10;101786.34;5035160;28;20025;-69
2022/07/19 10:27:46;;;;;;;1.90;1.08;;;;;;;37.83;36.12;101784.69;5034768;28;20081;-68
2022/07/19 10:30:11;;;;;;;1.58;0.98;;;;;;;38.35;33.46;101792.47;5039365;28;20040;-68
2022/07/19 10:32:38;;;;;;;2.95;1.10;;;;;;;37.31;35.30;101781.44;5038370;28;20386;-68
2022/07/19 10:35:36;;;;;;;1.60;0.93;;;;;;;37.62;32.83;101790.66;5040040;28;20037;-68
2022/07/19 10:38:01;;;;;;;1.63;1.00;;;;;;;36.95;34.69;101779.41;5024434;28;20075;-68
2022/07/19 10:40:43;;;;;;;3.80;1.10;;;;;;;36.52;34.52;101772.25;5027745;28;20025;-68
2022/07/19 10:43:22;;;;;;;1.30;1.00;;;;;;;36.41;35.15;101777.13;5024144;28;20045;-68
2022/07/19 10:45:54;;;;;;;;;;;;;;;35.83;37.12;101766.56;5027091;28;20041;-69
2022/07/19 10:48:21;;;;;;;1.73;0.80;;;;;;;36.81;37.99;101766.47;5025834;28;19913;-69
2022/07/19 10:50:49;;;;;;;1.40;0.95;;;;;;;37.89;34.47;101769.63;5020172;28;20892;-69
2022/07/19 10:53:42;;;;;;;4.45;1.00;;;;;;;38.71;34.84;101767.50;5025446;28;20085;-69
2022/07/19 10:56:15;;;;;;;4.93;1.20;;;;;;;39.12;33.40;101760.81;5025955;28;20952;-68
2022/07/19 10:59:11;;;;;;;1.45;1.20;;;;;;;38.05;33.78;101759.88;5022570;28;20022;-68
2022/07/19 11:01:38;;;;;;;1.55;1.08;;;;;;;37.98;34.51;101751.22;4949862;28;20058;-68
2022/07/19 11:04:23;;;;;;;3.60;1.13;;;;;;;38.16;35.07;101763.19;4937905;28;20522;-68
2022/07/19 11:06:49;;;;;;;2.10;1.13;;;;;;;37.61;34.01;101752.44;4952087;28;20058;-70
2022/07/19 11:09:15;;;;;;;1.90;0.90;;;;;;;36.62;35.15;101763.00;4951639;28;20058;-68
2022/07/19 11:11:41;;;;;;;2.65;1.17;;;;;;;37.15;36.03;101754.25;4951697;28;20404;-68
2022/07/19 11:14:06;;;;;;;1.45;0.90;;;;;;;37.81;34.63;101751.91;4955835;28;20042;-68
2022/07/19 11:16:32;;;;;;;2.00;1.05;;;;;;;38.12;34.60;101744.84;4974135;28;20044;-68
2022/07/19 11:19:08;;;;;;;6.03;1.25;;;;;;;38.62;33.67;101742.66;4973032;28;20047;-69
2022/07/19 11:21:36;;;;;;;3.15;1.10;;;;;;;37.97;32.85;101749.59;4972889;28;20109;-69
2022/07/19 11:24:05;;;;;;;3.22;1.33;;;;;;;37.56;35.11;101747.84;4973009;28;20027;-69
2022/07/19 11:26:38;;;;;;;1.40;0.90;;;;;;;37.36;35.50;101731.78;4971480;28;20035;-68
2022/07/19 11:29:05;;;;;;;1.70;1.20;;;;;;;37.92;33.91;101735.94;4975287;28;20046;-68